sensor_id;sensor_type;location;lat;lon;timestamp;temperature;humidity
26589;DHT22;14235;48.532;8.722;2023-02-28T00:00:46;0.20;99.90
26589;DHT22;14235;48.532;8.722;2023-02-28T00:03:11;0.20;99.90
26589;DHT22;14235;48.532;8.722;2023-02-28T00:05:37;0.20;99.90
26589;DHT22;14235;48.532;8.722;2023-02-28T00:08:03;0.20;99.90
26589;DHT22;14235;48.532;8.722;2023-02-28T00:10:31;0.40;99.90
26589;DHT22;14235;48.532;8.722;2023-02-28T00:13:01;0.30;99.90
26589;DHT22;14235;48.532;8.722;2023-02-28T00:15:27;0.00;99.90
26589;DHT22;14235;48.532;8.722;2023-02-28T00:17:52;0.20;99.90
26589;DHT22;14235;48.532;8.722;2023-02-28T00:20:18;0.20;99.90
26589;DHT22;14235;48.532;8.722;2023-02-28T00:22:50;0.40;99.90
26589;DHT22;14235;48.532;8.722;2023-02-28T00:25:19;0.40;99.90
26589;DHT22;14235;48.532;8.722;2023-02-28T00:27:45;0.40;99.90
26589;DHT22;14235;48.532;8.722;2023-02-28T00:30:17;0.30;99.90
26589;DHT22;14235;48.532;8.722;2023-02-28T00:32:43;0.40;99.90
26589;DHT22;14235;48.532;8.722;2023-02-28T00:35:10;0.20;99.90
26589;DHT22;14235;48.532;8.722;2023-02-28T00:37:35;0.30;99.90
26589;DHT22;14235;48.532;8.722;2023-02-28T00:40:02;0.30;99.90
26589;DHT22;14235;48.532;8.722;2023-02-28T00:42:30;0.60;99.90
26589;DHT22;14235;48.532;8.722;2023-02-28T00:44:55;0.30;99.90
26589;DHT22;14235;48.532;8.722;2023-02-28T00:47:21;0.30;99.90
26589;DHT22;14235;48.532;8.722;2023-02-28T00:49:47;0.40;99.90
26589;DHT22;14235;48.532;8.722;2023-02-28T00:52:13;0.40;99.90
26589;DHT22;14235;48.532;8.722;2023-02-28T00:54:39;0.40;99.90
26589;DHT22;14235;48.532;8.722;2023-02-28T00:57:04;0.40;99.90
26589;DHT22;14235;48.532;8.722;2023-02-28T00:59:30;0.20;99.90
26589;DHT22;14235;48.532;8.722;2023-02-28T01:01:56;0.20;99.90
26589;DHT22;14235;48.532;8.722;2023-02-28T01:04:22;0.30;99.90
26589;DHT22;14235;48.532;8.722;2023-02-28T01:06:47;0.30;99.90
26589;DHT22;14235;48.532;8.722;2023-02-28T01:09:13;0.20;99.90
26589;DHT22;14235;48.532;8.722;2023-02-28T01:11:39;0.20;99.90
26589;DHT22;14235;48.532;8.722;2023-02-28T01:14:06;0.20;99.90
26589;DHT22;14235;48.532;8.722;2023-02-28T01:16:32;0.00;99.90
26589;DHT22;14235;48.532;8.722;2023-02-28T01:18:58;0.20;99.90
26589;DHT22;14235;48.532;8.722;2023-02-28T01:21:26;0.10;99.90
26589;DHT22;14235;48.532;8.722;2023-02-28T01:23:51;0.10;99.90
26589;DHT22;14235;48.532;8.722;2023-02-28T01:26:20;0.00;99.90
26589;DHT22;14235;48.532;8.722;2023-02-28T01:28:46;-0.10;99.90
26589;DHT22;14235;48.532;8.722;2023-02-28T01:31:12;-0.20;99.90
26589;DHT22;14235;48.532;8.722;2023-02-28T01:33:39;0.20;99.90
26589;DHT22;14235;48.532;8.722;2023-02-28T01:36:11;-0.10;99.90
26589;DHT22;14235;48.532;8.722;2023-02-28T01:38:37;-0.20;99.90
26589;DHT22;14235;48.532;8.722;2023-02-28T01:41:03;-0.40;99.90
26589;DHT22;14235;48.532;8.722;2023-02-28T01:43:31;-0.20;99.90
26589;DHT22;14235;48.532;8.722;2023-02-28T01:45:58;-0.30;99.90
26589;DHT22;14235;48.532;8.722;2023-02-28T01:48:32;0.10;99.90
26589;DHT22;14235;48.532;8.722;2023-02-28T01:51:05;-0.40;99.90
26589;DHT22;14235;48.532;8.722;2023-02-28T01:53:37;-0.20;99.90
26589;DHT22;14235;48.532;8.722;2023-02-28T01:56:06;-0.30;99.90
26589;DHT22;14235;48.532;8.722;2023-02-28T01:58:33;-0.10;99.90
26589;DHT22;14235;48.532;8.722;2023-02-28T02:00:58;-0.20;99.90
26589;DHT22;14235;48.532;8.722;2023-02-28T02:03:24;-0.20;99.90
26589;DHT22;14235;48.532;8.722;2023-02-28T02:05:50;-0.40;99.90
26589;DHT22;14235;48.532;8.722;2023-02-28T02:08:22;-0.20;99.90
26589;DHT22;14235;48.532;8.722;2023-02-28T02:10:54;-0.30;99.90
26589;DHT22;14235;48.532;8.722;2023-02-28T02:16:10;-0.10;99.90
26589;DHT22;14235;48.532;8.722;2023-02-28T02:18:49;-0.20;99.90
26589;DHT22;14235;48.532;8.722;2023-02-28T02:30:21;-0.10;99.90
26589;DHT22;14235;48.532;8.722;2023-02-28T02:35:28;-0.20;99.90
26589;DHT22;14235;48.532;8.722;2023-02-28T02:38:10;-0.30;99.90
26589;DHT22;14235;48.532;8.722;2023-02-28T02:41:14;-0.20;99.90
26589;DHT22;14235;48.532;8.722;2023-02-28T02:43:44;-0.50;99.90
26589;DHT22;14235;48.532;8.722;2023-02-28T02:46:28;-0.30;99.90
26589;DHT22;14235;48.532;8.722;2023-02-28T02:48:56;-0.30;99.90
26589;DHT22;14235;48.532;8.722;2023-02-28T02:51:24;-0.30;99.90
26589;DHT22;14235;48.532;8.722;2023-02-28T02:53:55;-0.60;99.90
26589;DHT22;14235;48.532;8.722;2023-02-28T02:56:26;-0.70;99.90
26589;DHT22;14235;48.532;8.722;2023-02-28T02:58:54;-0.60;99.90
26589;DHT22;14235;48.532;8.722;2023-02-28T03:01:23;0.60;99.90
26589;DHT22;14235;48.532;8.722;2023-02-28T03:07:20;-0.60;99.90
26589;DHT22;14235;48.532;8.722;2023-02-28T03:09:56;-0.60;99.90
26589;DHT22;14235;48.532;8.722;2023-02-28T03:24:50;-0.80;99.90
26589;DHT22;14235;48.532;8.722;2023-02-28T03:31:48;-0.80;99.90
26589;DHT22;14235;48.532;8.722;2023-02-28T03:33:58;-0.70;99.90
26589;DHT22;14235;48.532;8.722;2023-02-28T03:36:29;-0.80;99.90
26589;DHT22;14235;48.532;8.722;2023-02-28T03:39:05;-0.90;99.90
26589;DHT22;14235;48.532;8.722;2023-02-28T03:41:49;-0.70;99.90
26589;DHT22;14235;48.532;8.722;2023-02-28T03:44:21;-0.80;99.90
26589;DHT22;14235;48.532;8.722;2023-02-28T03:47:05;-0.70;99.90
26589;DHT22;14235;48.532;8.722;2023-02-28T03:49:35;-0.50;99.90
26589;DHT22;14235;48.532;8.722;2023-02-28T03:52:03;-0.90;99.90
26589;DHT22;14235;48.532;8.722;2023-02-28T03:54:34;-0.60;99.90
26589;DHT22;14235;48.532;8.722;2023-02-28T03:59:46;-0.60;99.90
26589;DHT22;14235;48.532;8.722;2023-02-28T04:02:13;-0.80;99.90
26589;DHT22;14235;48.532;8.722;2023-02-28T04:04:38;-0.70;99.90
26589;DHT22;14235;48.532;8.722;2023-02-28T04:07:11;-0.60;99.90
26589;DHT22;14235;48.532;8.722;2023-02-28T04:09:37;-0.70;99.90
26589;DHT22;14235;48.532;8.722;2023-02-28T04:12:03;-0.60;99.90
26589;DHT22;14235;48.532;8.722;2023-02-28T04:14:29;-0.60;99.90
26589;DHT22;14235;48.532;8.722;2023-02-28T04:16:54;-0.80;99.90
26589;DHT22;14235;48.532;8.722;2023-02-28T04:19:20;-0.70;99.90
26589;DHT22;14235;48.532;8.722;2023-02-28T04:21:48;-0.80;99.90
26589;DHT22;14235;48.532;8.722;2023-02-28T04:24:17;-0.60;99.90
26589;DHT22;14235;48.532;8.722;2023-02-28T04:26:51;-0.90;99.90
26589;DHT22;14235;48.532;8.722;2023-02-28T04:29:31;-0.60;99.90
26589;DHT22;14235;48.532;8.722;2023-02-28T04:31:58;-1.00;99.90
26589;DHT22;14235;48.532;8.722;2023-02-28T04:34:25;-0.90;99.90
26589;DHT22;14235;48.532;8.722;2023-02-28T04:36:52;-0.60;99.90
26589;DHT22;14235;48.532;8.722;2023-02-28T04:39:20;-0.70;99.90
26589;DHT22;14235;48.532;8.722;2023-02-28T04:41:46;-1.00;99.90
26589;DHT22;14235;48.532;8.722;2023-02-28T04:44:12;-0.80;99.90
26589;DHT22;14235;48.532;8.722;2023-02-28T04:46:38;-0.70;99.90
26589;DHT22;14235;48.532;8.722;2023-02-28T04:49:03;-0.90;99.90
26589;DHT22;14235;48.532;8.722;2023-02-28T04:51:29;-0.80;99.90
26589;DHT22;14235;48.532;8.722;2023-02-28T04:53:55;-0.80;99.90
26589;DHT22;14235;48.532;8.722;2023-02-28T04:56:21;-0.70;99.90
26589;DHT22;14235;48.532;8.722;2023-02-28T04:58:47;-0.70;99.90
26589;DHT22;14235;48.532;8.722;2023-02-28T05:03:49;-0.60;99.90
26589;DHT22;14235;48.532;8.722;2023-02-28T05:06:15;-0.80;99.90
26589;DHT22;14235;48.532;8.722;2023-02-28T05:08:41;-0.70;99.90
26589;DHT22;14235;48.532;8.722;2023-02-28T05:11:32;-0.70;99.90
26589;DHT22;14235;48.532;8.722;2023-02-28T05:14:01;-0.70;99.90
26589;DHT22;14235;48.532;8.722;2023-02-28T05:16:27;-0.80;99.90
26589;DHT22;14235;48.532;8.722;2023-02-28T05:18:52;-0.50;99.90
26589;DHT22;14235;48.532;8.722;2023-02-28T05:21:33;-0.50;99.90
26589;DHT22;14235;48.532;8.722;2023-02-28T05:24:03;-0.40;99.90
26589;DHT22;14235;48.532;8.722;2023-02-28T05:26:30;-0.60;99.90
26589;DHT22;14235;48.532;8.722;2023-02-28T05:28:56;-0.50;99.90
26589;DHT22;14235;48.532;8.722;2023-02-28T05:31:22;-0.40;99.90
26589;DHT22;14235;48.532;8.722;2023-02-28T05:33:49;-0.40;99.90
26589;DHT22;14235;48.532;8.722;2023-02-28T05:36:15;-0.40;99.90
26589;DHT22;14235;48.532;8.722;2023-02-28T05:38:41;-0.40;99.90
26589;DHT22;14235;48.532;8.722;2023-02-28T05:41:08;-0.40;99.90
26589;DHT22;14235;48.532;8.722;2023-02-28T05:43:35;-0.60;99.90
26589;DHT22;14235;48.532;8.722;2023-02-28T05:46:08;-0.40;99.90
26589;DHT22;14235;48.532;8.722;2023-02-28T05:48:35;-0.40;99.90
26589;DHT22;14235;48.532;8.722;2023-02-28T05:51:02;-0.50;99.90
26589;DHT22;14235;48.532;8.722;2023-02-28T05:53:28;-0.30;99.90
26589;DHT22;14235;48.532;8.722;2023-02-28T05:55:55;-0.70;99.90
26589;DHT22;14235;48.532;8.722;2023-02-28T05:58:21;-0.60;99.90
26589;DHT22;14235;48.532;8.722;2023-02-28T06:00:47;-0.20;99.90
26589;DHT22;14235;48.532;8.722;2023-02-28T06:03:12;0.60;99.90
26589;DHT22;14235;48.532;8.722;2023-02-28T06:05:38;-0.50;99.90
26589;DHT22;14235;48.532;8.722;2023-02-28T06:08:04;-0.60;99.90
26589;DHT22;14235;48.532;8.722;2023-02-28T06:10:35;-0.40;99.90
26589;DHT22;14235;48.532;8.722;2023-02-28T06:13:02;-0.40;99.90
26589;DHT22;14235;48.532;8.722;2023-02-28T06:15:28;-0.60;99.90
26589;DHT22;14235;48.532;8.722;2023-02-28T06:17:54;-0.40;99.90
26589;DHT22;14235;48.532;8.722;2023-02-28T06:20:22;-0.60;99.90
26589;DHT22;14235;48.532;8.722;2023-02-28T06:22:48;-0.70;99.90
26589;DHT22;14235;48.532;8.722;2023-02-28T06:25:16;-0.50;99.90
26589;DHT22;14235;48.532;8.722;2023-02-28T06:27:42;-0.60;99.90
26589;DHT22;14235;48.532;8.722;2023-02-28T06:30:09;-0.70;99.90
26589;DHT22;14235;48.532;8.722;2023-02-28T06:32:35;-0.60;99.90
26589;DHT22;14235;48.532;8.722;2023-02-28T06:35:01;-0.50;99.90
26589;DHT22;14235;48.532;8.722;2023-02-28T06:37:27;0.80;99.90
26589;DHT22;14235;48.532;8.722;2023-02-28T06:39:54;-0.50;99.90
26589;DHT22;14235;48.532;8.722;2023-02-28T06:42:22;-0.60;99.90
26589;DHT22;14235;48.532;8.722;2023-02-28T06:44:50;-0.50;99.90
26589;DHT22;14235;48.532;8.722;2023-02-28T06:47:16;-0.70;99.90
26589;DHT22;14235;48.532;8.722;2023-02-28T06:49:42;-0.60;99.90
26589;DHT22;14235;48.532;8.722;2023-02-28T06:52:07;-0.60;99.90
26589;DHT22;14235;48.532;8.722;2023-02-28T06:54:36;-0.40;99.90
26589;DHT22;14235;48.532;8.722;2023-02-28T06:57:02;-0.50;99.90
26589;DHT22;14235;48.532;8.722;2023-02-28T06:59:28;-0.60;99.90
26589;DHT22;14235;48.532;8.722;2023-02-28T07:01:53;-0.60;99.90
26589;DHT22;14235;48.532;8.722;2023-02-28T07:04:20;-0.50;99.90
26589;DHT22;14235;48.532;8.722;2023-02-28T07:06:46;-0.50;99.90
26589;DHT22;14235;48.532;8.722;2023-02-28T07:09:11;-0.50;99.90
26589;DHT22;14235;48.532;8.722;2023-02-28T07:11:37;0.10;99.90
26589;DHT22;14235;48.532;8.722;2023-02-28T07:14:03;-0.30;99.90
26589;DHT22;14235;48.532;8.722;2023-02-28T07:16:28;-0.50;99.90
26589;DHT22;14235;48.532;8.722;2023-02-28T07:18:54;-0.50;99.90
26589;DHT22;14235;48.532;8.722;2023-02-28T07:21:20;-0.30;99.90
26589;DHT22;14235;48.532;8.722;2023-02-28T07:23:46;-0.50;99.90
26589;DHT22;14235;48.532;8.722;2023-02-28T07:26:14;-0.40;99.90
26589;DHT22;14235;48.532;8.722;2023-02-28T07:28:41;-0.50;99.90
26589;DHT22;14235;48.532;8.722;2023-02-28T07:31:08;-0.30;99.90
26589;DHT22;14235;48.532;8.722;2023-02-28T07:33:33;-0.30;99.90
26589;DHT22;14235;48.532;8.722;2023-02-28T07:36:04;-0.30;99.90
26589;DHT22;14235;48.532;8.722;2023-02-28T07:38:31;-0.20;99.90
26589;DHT22;14235;48.532;8.722;2023-02-28T07:40:58;-0.30;99.90
26589;DHT22;14235;48.532;8.722;2023-02-28T07:43:24;-0.10;99.90
26589;DHT22;14235;48.532;8.722;2023-02-28T07:45:49;-0.10;99.90
26589;DHT22;14235;48.532;8.722;2023-02-28T07:48:15;-0.20;99.90
26589;DHT22;14235;48.532;8.722;2023-02-28T07:50:40;-0.20;99.90
26589;DHT22;14235;48.532;8.722;2023-02-28T07:53:06;-0.30;99.90
26589;DHT22;14235;48.532;8.722;2023-02-28T07:55:32;-0.20;99.90
26589;DHT22;14235;48.532;8.722;2023-02-28T07:57:57;-0.10;99.90
26589;DHT22;14235;48.532;8.722;2023-02-28T08:00:23;-0.10;99.90
26589;DHT22;14235;48.532;8.722;2023-02-28T08:02:49;-0.20;99.90
26589;DHT22;14235;48.532;8.722;2023-02-28T08:05:15;-0.30;99.90
26589;DHT22;14235;48.532;8.722;2023-02-28T08:07:41;-0.20;99.90
26589;DHT22;14235;48.532;8.722;2023-02-28T08:10:07;-0.10;99.90
26589;DHT22;14235;48.532;8.722;2023-02-28T08:12:35;-0.60;99.90
26589;DHT22;14235;48.532;8.722;2023-02-28T08:15:00;-0.10;99.90
26589;DHT22;14235;48.532;8.722;2023-02-28T08:17:26;-0.10;99.90
26589;DHT22;14235;48.532;8.722;2023-02-28T08:19:53;0.00;99.90
26589;DHT22;14235;48.532;8.722;2023-02-28T08:22:18;-0.10;99.90
26589;DHT22;14235;48.532;8.722;2023-02-28T08:24:44;-0.10;99.90
26589;DHT22;14235;48.532;8.722;2023-02-28T08:27:10;-0.10;99.90
26589;DHT22;14235;48.532;8.722;2023-02-28T08:29:39;-0.10;99.90
26589;DHT22;14235;48.532;8.722;2023-02-28T08:32:05;-0.10;99.90
26589;DHT22;14235;48.532;8.722;2023-02-28T08:34:31;-0.40;99.90
26589;DHT22;14235;48.532;8.722;2023-02-28T08:36:57;0.10;99.90
26589;DHT22;14235;48.532;8.722;2023-02-28T08:39:22;0.10;99.90
26589;DHT22;14235;48.532;8.722;2023-02-28T08:41:48;0.80;99.90
26589;DHT22;14235;48.532;8.722;2023-02-28T08:44:14;0.10;99.90
26589;DHT22;14235;48.532;8.722;2023-02-28T08:46:39;0.00;99.90
26589;DHT22;14235;48.532;8.722;2023-02-28T08:49:05;0.10;99.90
26589;DHT22;14235;48.532;8.722;2023-02-28T08:51:30;0.20;99.90
26589;DHT22;14235;48.532;8.722;2023-02-28T08:53:59;1.30;99.90
26589;DHT22;14235;48.532;8.722;2023-02-28T08:56:26;0.30;99.90
26589;DHT22;14235;48.532;8.722;2023-02-28T08:58:54;0.20;99.90
26589;DHT22;14235;48.532;8.722;2023-02-28T09:01:29;0.20;99.90
26589;DHT22;14235;48.532;8.722;2023-02-28T09:03:56;0.30;99.90
26589;DHT22;14235;48.532;8.722;2023-02-28T09:06:24;0.30;99.90
26589;DHT22;14235;48.532;8.722;2023-02-28T09:08:51;0.20;99.90
26589;DHT22;14235;48.532;8.722;2023-02-28T09:11:17;0.40;99.90
26589;DHT22;14235;48.532;8.722;2023-02-28T09:13:44;0.40;99.90
26589;DHT22;14235;48.532;8.722;2023-02-28T09:16:12;0.40;99.90
26589;DHT22;14235;48.532;8.722;2023-02-28T09:18:38;1.30;99.90
26589;DHT22;14235;48.532;8.722;2023-02-28T09:21:09;0.30;99.90
26589;DHT22;14235;48.532;8.722;2023-02-28T09:23:36;0.50;99.90
26589;DHT22;14235;48.532;8.722;2023-02-28T09:26:04;0.50;99.90
26589;DHT22;14235;48.532;8.722;2023-02-28T09:28:29;0.50;99.90
26589;DHT22;14235;48.532;8.722;2023-02-28T09:30:55;0.50;99.90
26589;DHT22;14235;48.532;8.722;2023-02-28T09:33:22;0.50;99.90
26589;DHT22;14235;48.532;8.722;2023-02-28T09:35:49;0.50;99.90
26589;DHT22;14235;48.532;8.722;2023-02-28T09:38:15;0.70;99.90
26589;DHT22;14235;48.532;8.722;2023-02-28T09:40:54;0.40;99.90
26589;DHT22;14235;48.532;8.722;2023-02-28T09:43:22;0.20;99.90
26589;DHT22;14235;48.532;8.722;2023-02-28T09:45:56;0.30;99.90
26589;DHT22;14235;48.532;8.722;2023-02-28T09:48:29;0.60;99.90
26589;DHT22;14235;48.532;8.722;2023-02-28T09:51:03;0.60;99.90
26589;DHT22;14235;48.532;8.722;2023-02-28T09:53:33;0.80;99.90
26589;DHT22;14235;48.532;8.722;2023-02-28T09:58:49;0.80;99.90
26589;DHT22;14235;48.532;8.722;2023-02-28T10:04:35;0.90;99.90
26589;DHT22;14235;48.532;8.722;2023-02-28T10:07:10;0.90;99.90
26589;DHT22;14235;48.532;8.722;2023-02-28T10:09:45;0.70;99.90
26589;DHT22;14235;48.532;8.722;2023-02-28T10:12:12;0.60;99.90
26589;DHT22;14235;48.532;8.722;2023-02-28T10:14:45;2.70;99.90
26589;DHT22;14235;48.532;8.722;2023-02-28T10:17:18;0.90;99.90
26589;DHT22;14235;48.532;8.722;2023-02-28T10:20:05;1.10;99.90
26589;DHT22;14235;48.532;8.722;2023-02-28T10:23:00;0.90;99.90
26589;DHT22;14235;48.532;8.722;2023-02-28T10:25:34;1.00;99.90
26589;DHT22;14235;48.532;8.722;2023-02-28T10:28:14;0.80;99.90
26589;DHT22;14235;48.532;8.722;2023-02-28T10:30:52;0.80;99.90
26589;DHT22;14235;48.532;8.722;2023-02-28T10:33:32;1.00;99.90
26589;DHT22;14235;48.532;8.722;2023-02-28T10:36:00;1.10;99.90
26589;DHT22;14235;48.532;8.722;2023-02-28T10:38:32;0.90;99.90
26589;DHT22;14235;48.532;8.722;2023-02-28T10:41:16;1.00;99.90
26589;DHT22;14235;48.532;8.722;2023-02-28T10:43:43;1.10;99.90
26589;DHT22;14235;48.532;8.722;2023-02-28T10:48:42;1.10;99.90
26589;DHT22;14235;48.532;8.722;2023-02-28T10:51:14;1.00;99.90
26589;DHT22;14235;48.532;8.722;2023-02-28T10:53:53;1.20;99.90
26589;DHT22;14235;48.532;8.722;2023-02-28T10:56:24;1.30;99.90
26589;DHT22;14235;48.532;8.722;2023-02-28T10:58:58;1.30;99.90
26589;DHT22;14235;48.532;8.722;2023-02-28T11:01:39;1.20;99.90
26589;DHT22;14235;48.532;8.722;2023-02-28T11:06:47;1.50;99.90
26589;DHT22;14235;48.532;8.722;2023-02-28T11:10:01;1.30;99.90
26589;DHT22;14235;48.532;8.722;2023-02-28T11:12:26;1.50;99.90
26589;DHT22;14235;48.532;8.722;2023-02-28T11:15:04;1.40;99.90
26589;DHT22;14235;48.532;8.722;2023-02-28T11:17:31;1.60;99.90
26589;DHT22;14235;48.532;8.722;2023-02-28T11:20:01;1.40;99.90
26589;DHT22;14235;48.532;8.722;2023-02-28T11:22:31;1.50;99.90
26589;DHT22;14235;48.532;8.722;2023-02-28T11:25:00;1.50;99.90
26589;DHT22;14235;48.532;8.722;2023-02-28T11:29:56;1.70;99.90
26589;DHT22;14235;48.532;8.722;2023-02-28T11:32:24;1.60;99.90
26589;DHT22;14235;48.532;8.722;2023-02-28T11:35:16;1.60;99.90
26589;DHT22;14235;48.532;8.722;2023-02-28T11:37:42;1.70;99.90
26589;DHT22;14235;48.532;8.722;2023-02-28T11:46:05;1.90;99.90
26589;DHT22;14235;48.532;8.722;2023-02-28T11:48:37;1.80;99.90
26589;DHT22;14235;48.532;8.722;2023-02-28T11:51:23;2.00;99.90
26589;DHT22;14235;48.532;8.722;2023-02-28T11:56:47;2.10;99.90
26589;DHT22;14235;48.532;8.722;2023-02-28T12:02:22;2.20;99.90
26589;DHT22;14235;48.532;8.722;2023-02-28T12:05:09;2.30;99.90
26589;DHT22;14235;48.532;8.722;2023-02-28T12:21:18;2.60;99.90
26589;DHT22;14235;48.532;8.722;2023-02-28T12:23:57;2.70;99.90
26589;DHT22;14235;48.532;8.722;2023-02-28T12:26:39;2.80;99.90
26589;DHT22;14235;48.532;8.722;2023-02-28T12:29:18;2.80;99.90
26589;DHT22;14235;48.532;8.722;2023-02-28T12:31:54;2.90;99.90
26589;DHT22;14235;48.532;8.722;2023-02-28T12:34:25;3.00;99.90
26589;DHT22;14235;48.532;8.722;2023-02-28T12:36:53;2.90;99.90
26589;DHT22;14235;48.532;8.722;2023-02-28T12:39:26;2.70;99.90
26589;DHT22;14235;48.532;8.722;2023-02-28T12:42:05;3.10;99.90
26589;DHT22;14235;48.532;8.722;2023-02-28T12:44:39;3.10;99.90
26589;DHT22;14235;48.532;8.722;2023-02-28T12:47:14;3.20;99.90
26589;DHT22;14235;48.532;8.722;2023-02-28T12:52:11;3.00;99.90
26589;DHT22;14235;48.532;8.722;2023-02-28T12:54:49;2.90;99.90
26589;DHT22;14235;48.532;8.722;2023-02-28T12:57:35;3.10;99.90
26589;DHT22;14235;48.532;8.722;2023-02-28T13:00:12;3.30;99.90
26589;DHT22;14235;48.532;8.722;2023-02-28T13:10:49;4.00;99.90
26589;DHT22;14235;48.532;8.722;2023-02-28T13:13:24;3.70;99.90
26589;DHT22;14235;48.532;8.722;2023-02-28T13:16:08;4.10;99.90
26589;DHT22;14235;48.532;8.722;2023-02-28T13:26:12;4.90;99.90
26589;DHT22;14235;48.532;8.722;2023-02-28T13:28:58;5.90;99.90
26589;DHT22;14235;48.532;8.722;2023-02-28T13:31:23;4.90;99.90
26589;DHT22;14235;48.532;8.722;2023-02-28T13:36:28;4.90;99.90
26589;DHT22;14235;48.532;8.722;2023-02-28T13:53:07;5.40;99.90
26589;DHT22;14235;48.532;8.722;2023-02-28T13:58:48;5.10;99.90
26589;DHT22;14235;48.532;8.722;2023-02-28T14:04:14;5.40;99.90
26589;DHT22;14235;48.532;8.722;2023-02-28T14:09:29;5.70;99.90
26589;DHT22;14235;48.532;8.722;2023-02-28T14:19:34;6.70;95.30
26589;DHT22;14235;48.532;8.722;2023-02-28T14:31:09;7.50;96.10
26589;DHT22;14235;48.532;8.722;2023-02-28T14:34:05;7.70;96.30
26589;DHT22;14235;48.532;8.722;2023-02-28T14:36:41;7.90;96.60
26589;DHT22;14235;48.532;8.722;2023-02-28T14:44:21;8.00;99.90
26589;DHT22;14235;48.532;8.722;2023-02-28T14:49:43;8.30;98.90
26589;DHT22;14235;48.532;8.722;2023-02-28T14:52:25;8.30;98.60
26589;DHT22;14235;48.532;8.722;2023-02-28T14:57:27;8.00;99.90
26589;DHT22;14235;48.532;8.722;2023-02-28T15:00:21;7.70;96.80
26589;DHT22;14235;48.532;8.722;2023-02-28T15:02:47;7.80;96.90
26589;DHT22;14235;48.532;8.722;2023-02-28T15:07:38;7.70;97.00
26589;DHT22;14235;48.532;8.722;2023-02-28T15:12:33;7.60;95.80
26589;DHT22;14235;48.532;8.722;2023-02-28T15:14:59;7.30;95.80
26589;DHT22;14235;48.532;8.722;2023-02-28T15:17:25;7.10;95.80
26589;DHT22;14235;48.532;8.722;2023-02-28T15:19:52;7.10;96.40
26589;DHT22;14235;48.532;8.722;2023-02-28T15:22:35;6.50;95.80
26589;DHT22;14235;48.532;8.722;2023-02-28T15:25:02;6.60;96.20
26589;DHT22;14235;48.532;8.722;2023-02-28T15:27:31;6.30;96.30
26589;DHT22;14235;48.532;8.722;2023-02-28T15:30:05;6.00;96.70
26589;DHT22;14235;48.532;8.722;2023-02-28T15:32:33;5.80;96.70
26589;DHT22;14235;48.532;8.722;2023-02-28T15:35:18;5.70;96.80
26589;DHT22;14235;48.532;8.722;2023-02-28T15:40:31;5.70;93.80
26589;DHT22;14235;48.532;8.722;2023-02-28T15:43:16;5.60;93.60
26589;DHT22;14235;48.532;8.722;2023-02-28T15:45:46;5.80;94.80
26589;DHT22;14235;48.532;8.722;2023-02-28T15:48:22;5.60;94.50
26589;DHT22;14235;48.532;8.722;2023-02-28T15:50:57;5.60;94.90
26589;DHT22;14235;48.532;8.722;2023-02-28T15:53:33;5.60;94.90
26589;DHT22;14235;48.532;8.722;2023-02-28T15:56:02;5.60;94.70
26589;DHT22;14235;48.532;8.722;2023-02-28T15:58:29;5.30;94.60
26589;DHT22;14235;48.532;8.722;2023-02-28T16:01:07;5.20;94.40
26589;DHT22;14235;48.532;8.722;2023-02-28T16:03:46;5.20;94.50
26589;DHT22;14235;48.532;8.722;2023-02-28T16:06:34;5.20;95.00
26589;DHT22;14235;48.532;8.722;2023-02-28T16:09:02;5.60;94.90
26589;DHT22;14235;48.532;8.722;2023-02-28T16:11:28;5.10;94.70
26589;DHT22;14235;48.532;8.722;2023-02-28T16:13:54;5.10;94.80
26589;DHT22;14235;48.532;8.722;2023-02-28T16:16:22;5.60;95.10
26589;DHT22;14235;48.532;8.722;2023-02-28T16:18:49;4.90;94.60
26589;DHT22;14235;48.532;8.722;2023-02-28T16:21:15;4.90;94.90
26589;DHT22;14235;48.532;8.722;2023-02-28T16:23:41;5.00;94.90
26589;DHT22;14235;48.532;8.722;2023-02-28T16:26:07;4.90;96.40
26589;DHT22;14235;48.532;8.722;2023-02-28T16:28:36;4.80;96.40
26589;DHT22;14235;48.532;8.722;2023-02-28T16:31:05;4.80;96.40
26589;DHT22;14235;48.532;8.722;2023-02-28T16:33:32;5.10;96.80
26589;DHT22;14235;48.532;8.722;2023-02-28T16:35:59;4.80;97.00
26589;DHT22;14235;48.532;8.722;2023-02-28T16:38:25;4.70;96.80
26589;DHT22;14235;48.532;8.722;2023-02-28T16:40:51;4.80;97.70
26589;DHT22;14235;48.532;8.722;2023-02-28T16:43:23;4.80;97.20
26589;DHT22;14235;48.532;8.722;2023-02-28T16:45:56;4.90;97.60
26589;DHT22;14235;48.532;8.722;2023-02-28T16:48:23;4.60;97.20
26589;DHT22;14235;48.532;8.722;2023-02-28T16:50:50;4.60;98.20
26589;DHT22;14235;48.532;8.722;2023-02-28T16:53:15;4.60;97.40
26589;DHT22;14235;48.532;8.722;2023-02-28T16:55:41;4.60;97.60
26589;DHT22;14235;48.532;8.722;2023-02-28T16:58:10;4.40;98.20
26589;DHT22;14235;48.532;8.722;2023-02-28T17:00:38;4.50;97.60
26589;DHT22;14235;48.532;8.722;2023-02-28T17:03:04;4.50;97.70
26589;DHT22;14235;48.532;8.722;2023-02-28T17:05:36;4.40;98.20
26589;DHT22;14235;48.532;8.722;2023-02-28T17:08:03;4.40;97.40
26589;DHT22;14235;48.532;8.722;2023-02-28T17:10:28;4.20;97.60
26589;DHT22;14235;48.532;8.722;2023-02-28T17:12:54;4.50;97.60
26589;DHT22;14235;48.532;8.722;2023-02-28T17:15:20;4.60;98.50
26589;DHT22;14235;48.532;8.722;2023-02-28T17:17:47;4.70;98.70
26589;DHT22;14235;48.532;8.722;2023-02-28T17:20:18;4.00;98.60
26589;DHT22;14235;48.532;8.722;2023-02-28T17:22:48;4.30;98.90
26589;DHT22;14235;48.532;8.722;2023-02-28T17:25:14;5.10;98.80
26589;DHT22;14235;48.532;8.722;2023-02-28T17:27:39;4.00;98.50
26589;DHT22;14235;48.532;8.722;2023-02-28T17:30:26;4.00;99.00
26589;DHT22;14235;48.532;8.722;2023-02-28T17:32:53;4.00;99.80
26589;DHT22;14235;48.532;8.722;2023-02-28T17:35:19;3.80;99.90
26589;DHT22;14235;48.532;8.722;2023-02-28T17:37:44;3.80;99.80
26589;DHT22;14235;48.532;8.722;2023-02-28T17:40:21;3.80;99.90
26589;DHT22;14235;48.532;8.722;2023-02-28T17:42:47;4.00;99.90
26589;DHT22;14235;48.532;8.722;2023-02-28T17:45:15;3.70;99.90
26589;DHT22;14235;48.532;8.722;2023-02-28T17:47:43;3.90;99.90
26589;DHT22;14235;48.532;8.722;2023-02-28T17:50:18;3.90;99.90
26589;DHT22;14235;48.532;8.722;2023-02-28T17:52:46;4.20;99.90
26589;DHT22;14235;48.532;8.722;2023-02-28T17:55:13;4.60;99.90
26589;DHT22;14235;48.532;8.722;2023-02-28T17:57:42;3.70;99.90
26589;DHT22;14235;48.532;8.722;2023-02-28T18:00:17;3.60;99.90
26589;DHT22;14235;48.532;8.722;2023-02-28T18:02:45;3.60;99.90
26589;DHT22;14235;48.532;8.722;2023-02-28T18:05:12;3.40;99.90
26589;DHT22;14235;48.532;8.722;2023-02-28T18:07:39;3.40;99.90
26589;DHT22;14235;48.532;8.722;2023-02-28T18:10:16;3.30;99.90
26589;DHT22;14235;48.532;8.722;2023-02-28T18:12:54;3.20;99.90
26589;DHT22;14235;48.532;8.722;2023-02-28T18:15:21;3.20;99.90
26589;DHT22;14235;48.532;8.722;2023-02-28T18:17:53;3.20;99.90
26589;DHT22;14235;48.532;8.722;2023-02-28T18:20:20;3.10;99.90
26589;DHT22;14235;48.532;8.722;2023-02-28T18:22:56;4.00;99.90
26589;DHT22;14235;48.532;8.722;2023-02-28T18:25:22;4.80;99.90
26589;DHT22;14235;48.532;8.722;2023-02-28T18:27:48;3.00;99.90
26589;DHT22;14235;48.532;8.722;2023-02-28T18:30:30;2.90;99.90
26589;DHT22;14235;48.532;8.722;2023-02-28T18:32:58;3.20;99.90